createdAt,value
2023-03-13T00:01:49.685Z,49.53
2023-03-13T00:04:17.852Z,49.48
2023-03-13T00:06:45.750Z,49.45
2023-03-13T00:09:16.521Z,49.29
2023-03-13T00:11:46.128Z,49.44
2023-03-13T00:14:13.863Z,49.63
2023-03-13T00:16:41.899Z,49.53
2023-03-13T00:19:10.388Z,49.49
2023-03-13T00:21:38.501Z,49.41
2023-03-13T00:24:06.743Z,49.66
2023-03-13T00:26:34.533Z,49.64
2023-03-13T00:29:02.261Z,49.78
2023-03-13T00:31:31.629Z,49.70
2023-03-13T00:34:03.899Z,49.43
2023-03-13T00:36:34.137Z,49.48
2023-03-13T00:39:05.193Z,49.48
2023-03-13T00:41:37.000Z,49.61
2023-03-13T00:44:06.050Z,49.71
2023-03-13T00:46:33.889Z,49.46
2023-03-13T00:49:01.805Z,49.54
2023-03-13T00:51:30.292Z,49.36
2023-03-13T00:54:04.053Z,49.44
2023-03-13T00:56:31.883Z,49.70
2023-03-13T00:59:00.646Z,49.60
2023-03-13T01:01:34.540Z,49.52
2023-03-13T01:04:05.800Z,49.74
2023-03-13T01:06:36.171Z,49.84
2023-03-13T01:09:05.934Z,49.61
2023-03-13T01:11:39.211Z,49.97
2023-03-13T01:14:10.901Z,50.05
2023-03-13T01:16:39.144Z,50.10
2023-03-13T01:19:13.621Z,49.78
2023-03-13T01:21:43.342Z,49.95
2023-03-13T01:24:12.223Z,49.77
2023-03-13T01:26:40.163Z,49.81
2023-03-13T01:29:08.094Z,49.82
2023-03-13T01:31:36.471Z,49.73
2023-03-13T01:34:08.368Z,49.51
2023-03-13T01:36:38.040Z,49.67
2023-03-13T01:39:06.397Z,49.47
2023-03-13T01:41:34.454Z,49.53
2023-03-13T01:44:02.261Z,49.72
2023-03-13T01:46:36.133Z,49.48
2023-03-13T01:49:16.960Z,49.16
2023-03-13T01:52:20.631Z,49.43
2023-03-13T01:54:57.986Z,48.97
2023-03-13T01:57:25.742Z,49.14
2023-03-13T01:59:59.472Z,49.30
2023-03-13T02:02:28.388Z,49.38
2023-03-13T02:05:00.818Z,49.10
2023-03-13T02:07:33.782Z,49.26
2023-03-13T02:10:01.905Z,49.31
2023-03-13T02:12:35.227Z,49.72
2023-03-13T02:15:13.801Z,49.52
2023-03-13T02:17:43.336Z,49.66
2023-03-13T02:20:12.606Z,49.58
2023-03-13T02:23:02.168Z,49.79
2023-03-13T02:25:37.626Z,49.90
2023-03-13T02:28:09.222Z,50.19
2023-03-13T02:30:40.151Z,50.04
2023-03-13T02:33:08.049Z,50.47
2023-03-13T02:35:37.347Z,50.57
2023-03-13T02:38:13.810Z,50.85
2023-03-13T02:40:45.513Z,50.47
2023-03-13T02:43:34.535Z,50.76
2023-03-13T02:46:21.955Z,50.87
2023-03-13T02:48:55.994Z,50.40
2023-03-13T02:51:25.173Z,50.63
2023-03-13T02:53:58.977Z,50.81
2023-03-13T02:56:28.307Z,50.96
2023-03-13T02:58:56.825Z,50.84
2023-03-13T03:01:26.733Z,50.93
2023-03-13T03:03:54.747Z,50.98
2023-03-13T03:06:22.473Z,51.18
2023-03-13T03:08:51.027Z,51.60
2023-03-13T03:11:19.269Z,50.95
2023-03-13T03:13:51.801Z,51.43
2023-03-13T03:16:21.635Z,51.20
2023-03-13T03:18:49.368Z,51.28
2023-03-13T03:21:17.175Z,51.31
2023-03-13T03:23:45.042Z,51.04
2023-03-13T03:26:13.903Z,51.17
2023-03-13T03:28:41.932Z,51.01
2023-03-13T03:31:15.261Z,51.15
2023-03-13T03:33:44.371Z,51.02
2023-03-13T03:36:17.247Z,51.21
2023-03-13T03:38:46.572Z,51.26
2023-03-13T03:41:17.809Z,51.55
2023-03-13T03:43:47.484Z,51.45
2023-03-13T03:46:17.829Z,51.38
2023-03-13T03:48:45.758Z,51.25
2023-03-13T03:51:14.883Z,51.64
2023-03-13T03:53:47.627Z,51.50
2023-03-13T03:56:15.889Z,51.49
2023-03-13T03:58:48.688Z,51.04
2023-03-13T04:01:21.739Z,51.10
2023-03-13T04:03:50.912Z,51.25
2023-03-13T04:06:19.862Z,51.19
2023-03-13T04:08:48.416Z,51.03
2023-03-13T04:11:19.300Z,51.35
2023-03-13T04:13:53.645Z,51.10
2023-03-13T04:16:21.625Z,50.83
2023-03-13T04:18:49.781Z,50.84
2023-03-13T04:21:19.018Z,50.76
2023-03-13T04:23:58.515Z,50.88
2023-03-13T04:26:26.337Z,50.79
2023-03-13T04:28:55.884Z,51.03
2023-03-13T04:31:43.911Z,50.99
2023-03-13T04:34:24.195Z,50.92
2023-03-13T04:37:21.351Z,50.97
2023-03-13T04:40:24.548Z,51.11
2023-03-13T04:43:17.032Z,51.02
2023-03-13T04:46:01.277Z,50.79
2023-03-13T04:48:49.336Z,51.01
2023-03-13T04:51:37.302Z,51.07
2023-03-13T04:54:23.824Z,51.05
2023-03-13T04:57:09.840Z,51.24
2023-03-13T04:59:42.660Z,51.05
2023-03-13T05:02:30.724Z,51.18
2023-03-13T05:05:09.440Z,51.10
2023-03-13T05:07:56.014Z,50.89
2023-03-13T05:10:47.428Z,50.84
2023-03-13T05:13:15.074Z,51.24
2023-03-13T05:15:51.879Z,50.95
2023-03-13T05:18:39.545Z,50.91
2023-03-13T05:21:27.505Z,51.10
2023-03-13T05:24:16.425Z,51.77
2023-03-13T05:27:22.828Z,51.72
2023-03-13T05:30:05.350Z,51.70
2023-03-13T05:32:55.988Z,51.13
2023-03-13T05:35:53.170Z,51.29
2023-03-13T05:38:24.160Z,50.98
2023-03-13T05:41:17.837Z,50.77
2023-03-13T05:44:04.332Z,50.90
2023-03-13T05:46:54.849Z,50.75
2023-03-13T05:49:37.744Z,50.58
2023-03-13T05:52:30.003Z,50.76
2023-03-13T05:55:00.754Z,50.95
2023-03-13T05:58:00.742Z,51.22
2023-03-13T06:00:48.883Z,51.23
2023-03-13T06:03:35.389Z,51.41
2023-03-13T06:06:03.847Z,51.26
2023-03-13T06:08:38.024Z,51.40
2023-03-13T06:11:05.729Z,50.83
2023-03-13T06:13:34.788Z,50.50
2023-03-13T06:16:21.236Z,50.63
2023-03-13T06:18:49.727Z,50.17
2023-03-13T06:21:17.469Z,50.56
2023-03-13T06:23:45.228Z,50.62
2023-03-13T06:26:13.042Z,50.79
2023-03-13T06:28:40.977Z,51.00
2023-03-13T06:31:09.005Z,51.02
2023-03-13T06:33:37.411Z,51.16
2023-03-13T06:36:05.720Z,50.48
2023-03-13T06:38:34.160Z,50.19
2023-03-13T06:41:02.254Z,50.17
2023-03-13T06:43:30.578Z,50.71
2023-03-13T06:46:04.084Z,50.93
2023-03-13T06:48:31.850Z,51.42
2023-03-13T06:50:59.739Z,51.41
2023-03-13T06:53:28.407Z,50.69
2023-03-13T06:55:56.511Z,50.13
2023-03-13T06:58:32.016Z,50.09
2023-03-13T07:01:07.012Z,49.90
2023-03-13T07:03:35.813Z,50.01
2023-03-13T07:06:05.693Z,49.73
2023-03-13T07:08:34.465Z,49.64
2023-03-13T07:11:09.811Z,49.72
2023-03-13T07:13:38.655Z,49.59
2023-03-13T07:16:09.342Z,49.32
2023-03-13T07:18:38.411Z,49.45
2023-03-13T07:21:08.207Z,49.29
2023-03-13T07:23:37.347Z,49.44
2023-03-13T07:26:08.928Z,49.43
2023-03-13T07:28:37.889Z,49.69
2023-03-13T07:31:10.399Z,49.59
2023-03-13T07:33:38.328Z,49.26
2023-03-13T07:36:06.387Z,49.43
2023-03-13T07:38:34.498Z,49.53
2023-03-13T07:41:05.781Z,49.43
2023-03-13T07:43:33.945Z,49.60
2023-03-13T07:46:06.014Z,50.09
2023-03-13T07:48:36.289Z,50.12
2023-03-13T07:51:05.796Z,49.82
2023-03-13T07:53:34.758Z,49.82
2023-03-13T07:56:07.740Z,49.65
2023-03-13T07:58:38.789Z,49.49
2023-03-13T08:01:16.827Z,49.13
2023-03-13T08:03:45.923Z,49.44
2023-03-13T08:06:17.323Z,49.57
2023-03-13T08:08:46.328Z,49.65
2023-03-13T08:11:20.150Z,49.37
2023-03-13T08:13:49.901Z,49.15
2023-03-13T08:16:20.760Z,49.38
2023-03-13T08:18:52.870Z,49.09
2023-03-13T08:21:29.312Z,49.10
2023-03-13T08:23:59.863Z,48.84
2023-03-13T08:26:29.502Z,48.97
2023-03-13T08:29:00.221Z,48.68
2023-03-13T08:31:49.236Z,49.08
2023-03-13T08:34:18.492Z,48.99
2023-03-13T08:36:48.298Z,48.90
2023-03-13T08:39:18.465Z,48.81
2023-03-13T08:41:46.929Z,48.92
2023-03-13T08:44:17.495Z,48.69
2023-03-13T08:46:45.872Z,48.67
2023-03-13T08:49:14.211Z,48.75
2023-03-13T08:51:42.648Z,48.32
2023-03-13T08:54:10.629Z,47.82
2023-03-13T08:56:38.756Z,48.17
2023-03-13T08:59:07.135Z,48.11
2023-03-13T09:01:36.334Z,48.06
2023-03-13T09:04:05.551Z,48.11
2023-03-13T09:06:37.014Z,48.06
2023-03-13T09:09:06.077Z,48.43
2023-03-13T09:11:34.804Z,48.72
2023-03-13T09:14:02.646Z,48.76
2023-03-13T09:16:33.327Z,48.34
2023-03-13T09:19:01.786Z,48.48
2023-03-13T09:21:34.410Z,48.45
2023-03-13T09:24:02.588Z,48.76
2023-03-13T09:26:31.094Z,48.83
2023-03-13T09:28:59.420Z,49.21
2023-03-13T09:31:32.902Z,48.79
2023-03-13T09:34:01.386Z,49.11
2023-03-13T09:36:29.757Z,49.12
2023-03-13T09:39:00.178Z,49.27
2023-03-13T09:41:35.317Z,49.29
2023-03-13T09:44:20.796Z,49.54
2023-03-13T09:46:54.545Z,49.42
2023-03-13T09:49:35.146Z,49.79
2023-03-13T09:52:17.663Z,49.69
2023-03-13T09:55:22.901Z,50.46
2023-03-13T09:58:13.918Z,50.32
2023-03-13T10:00:46.696Z,50.52
2023-03-13T10:03:23.843Z,50.52
2023-03-13T10:05:57.355Z,51.05
2023-03-13T10:08:30.738Z,50.16
2023-03-13T10:11:11.900Z,50.36
2023-03-13T10:13:47.045Z,50.85
2023-03-13T10:16:39.169Z,50.68
2023-03-13T10:19:15.909Z,50.33
2023-03-13T10:21:50.058Z,50.65
2023-03-13T10:24:21.036Z,50.72
2023-03-13T10:26:48.800Z,50.60
2023-03-13T10:29:23.517Z,50.86
2023-03-13T10:32:06.194Z,51.00
2023-03-13T10:35:20.519Z,50.65
2023-03-13T10:37:48.438Z,51.12
2023-03-13T10:40:27.983Z,51.22
2023-03-13T10:43:08.274Z,51.64
2023-03-13T10:45:37.872Z,51.71
2023-03-13T10:48:15.384Z,51.69
2023-03-13T10:50:45.729Z,51.39
2023-03-13T10:53:28.911Z,51.15
2023-03-13T10:56:08.941Z,50.97
2023-03-13T11:01:18.089Z,50.59
2023-03-13T11:03:47.969Z,50.82
2023-03-13T11:06:26.881Z,50.91
2023-03-13T11:09:17.867Z,50.66
2023-03-13T11:11:53.237Z,50.78
2023-03-13T11:14:23.788Z,51.08
2023-03-13T11:17:15.984Z,51.30
2023-03-13T11:19:44.343Z,50.59
2023-03-13T11:22:15.541Z,50.71
2023-03-13T11:25:11.406Z,51.19
2023-03-13T11:27:49.511Z,51.41
2023-03-13T11:30:28.396Z,51.37
2023-03-13T11:33:05.475Z,51.79
2023-03-13T11:35:47.317Z,51.02
2023-03-13T11:39:13.887Z,51.10
2023-03-13T11:42:02.611Z,51.16
2023-03-13T11:45:01.473Z,50.94
2023-03-13T11:47:36.787Z,50.77
2023-03-13T11:50:13.528Z,50.95
2023-03-13T11:53:02.795Z,50.66
2023-03-13T11:55:36.886Z,50.79
2023-03-13T11:58:19.722Z,50.87
2023-03-13T12:01:05.630Z,50.80
2023-03-13T12:03:55.217Z,50.75
2023-03-13T12:06:44.708Z,51.03
2023-03-13T12:09:28.352Z,51.47
2023-03-13T12:12:05.935Z,51.09
2023-03-13T12:14:45.359Z,51.14
2023-03-13T12:17:30.245Z,50.78
2023-03-13T12:20:17.873Z,50.87
2023-03-13T12:22:55.095Z,50.82
2023-03-13T12:28:28.531Z,50.61
2023-03-13T12:31:19.646Z,51.11
2023-03-13T12:34:07.740Z,50.60
2023-03-13T12:37:08.716Z,50.61
2023-03-13T12:40:09.443Z,50.71
2023-03-13T12:42:48.706Z,50.63
2023-03-13T12:45:20.086Z,50.53
2023-03-13T12:48:15.337Z,50.85
2023-03-13T12:51:17.295Z,50.82
2023-03-13T12:54:03.683Z,50.72
2023-03-13T12:56:45.841Z,51.20
2023-03-13T12:59:19.008Z,50.74
2023-03-13T13:01:51.328Z,51.09
2023-03-13T13:04:32.502Z,51.02
2023-03-13T13:07:08.279Z,51.29
2023-03-13T13:09:42.134Z,51.24
2023-03-13T13:12:11.052Z,51.21
2023-03-13T13:14:48.084Z,51.06
2023-03-13T13:17:34.578Z,51.09
2023-03-13T13:20:30.667Z,51.31
2023-03-13T13:23:24.035Z,51.24
2023-03-13T13:25:53.849Z,51.25
2023-03-13T13:28:33.758Z,51.90
2023-03-13T13:31:02.407Z,51.51
2023-03-13T13:33:31.134Z,51.62
2023-03-13T13:36:15.850Z,51.65
2023-03-13T13:38:44.578Z,51.76
2023-03-13T13:41:12.968Z,51.73
2023-03-13T13:43:45.832Z,52.03
2023-03-13T13:46:20.893Z,52.05
2023-03-13T13:49:06.931Z,51.76
2023-03-13T13:51:35.287Z,52.37
2023-03-13T13:54:23.361Z,51.88
2023-03-13T13:57:10.171Z,51.92
2023-03-13T13:59:49.611Z,52.19
2023-03-13T14:02:30.760Z,52.23
2023-03-13T14:05:37.120Z,52.23
2023-03-13T14:08:14.128Z,52.16
2023-03-13T14:10:43.396Z,52.04
2023-03-13T14:13:19.668Z,52.08
2023-03-13T14:15:49.955Z,51.46
2023-03-13T14:18:28.446Z,51.79
2023-03-13T14:20:56.302Z,51.45
2023-03-13T14:23:33.024Z,51.17
2023-03-13T14:26:30.428Z,50.82
2023-03-13T14:29:03.376Z,51.01
2023-03-13T14:31:36.214Z,51.36
2023-03-13T14:34:10.011Z,51.18
2023-03-13T14:37:14.955Z,51.16
2023-03-13T14:39:46.888Z,51.06
2023-03-13T14:44:50.359Z,50.51
2023-03-13T14:47:32.811Z,50.33
2023-03-13T14:50:04.731Z,50.30
2023-03-13T14:52:34.251Z,50.37
2023-03-13T14:55:06.536Z,50.02
2023-03-13T14:57:35.767Z,49.88
2023-03-13T15:00:30.850Z,50.07
2023-03-13T15:03:17.547Z,50.09
2023-03-13T15:05:52.559Z,50.30
2023-03-13T15:08:24.969Z,50.17
2023-03-13T15:10:53.212Z,49.79
2023-03-13T15:13:27.428Z,50.14
2023-03-13T15:15:56.054Z,50.14
2023-03-13T15:18:26.472Z,49.97
2023-03-13T15:21:19.444Z,50.43
2023-03-13T15:26:24.334Z,50.24
2023-03-13T15:28:52.434Z,50.10
2023-03-13T15:31:24.065Z,49.89
2023-03-13T15:33:57.126Z,50.06
2023-03-13T15:36:26.190Z,49.72
2023-03-13T15:38:54.454Z,49.87
2023-03-13T15:41:23.237Z,50.13
2023-03-13T15:43:52.916Z,49.87
2023-03-13T15:46:21.235Z,50.00
2023-03-13T15:48:49.784Z,50.14
2023-03-13T15:51:17.882Z,50.14
2023-03-13T15:53:46.477Z,50.07
2023-03-13T15:56:20.006Z,50.34
2023-03-13T15:58:48.738Z,50.16
2023-03-13T16:01:18.159Z,49.71
2023-03-13T16:03:46.548Z,50.23
2023-03-13T16:06:21.082Z,50.18
2023-03-13T16:08:51.652Z,49.92
2023-03-13T16:11:19.671Z,49.95
2023-03-13T16:13:47.367Z,49.73
2023-03-13T16:16:21.401Z,49.78
2023-03-13T16:18:51.366Z,50.09
2023-03-13T16:21:26.125Z,49.61
2023-03-13T16:23:54.676Z,49.85
2023-03-13T16:26:25.323Z,49.64
2023-03-13T16:28:55.341Z,51.44
2023-03-13T16:31:27.650Z,51.25
2023-03-13T16:33:58.282Z,51.73
2023-03-13T16:36:29.710Z,50.79
2023-03-13T16:38:59.086Z,50.02
2023-03-13T16:41:28.739Z,50.34
2023-03-13T16:43:58.162Z,50.01
2023-03-13T16:46:41.282Z,49.82
2023-03-13T16:49:17.976Z,49.79
2023-03-13T16:51:47.035Z,49.76
2023-03-13T16:54:14.818Z,49.93
2023-03-13T16:56:43.772Z,49.44
2023-03-13T16:59:18.428Z,49.64
2023-03-13T17:01:47.314Z,49.69
2023-03-13T17:04:15.238Z,49.42
2023-03-13T17:06:44.984Z,49.22
2023-03-13T17:09:17.335Z,48.75
2023-03-13T17:11:45.752Z,48.89
2023-03-13T17:14:13.735Z,48.70
2023-03-13T17:16:44.082Z,48.44
2023-03-13T17:19:15.456Z,48.74
2023-03-13T17:21:43.343Z,48.63
2023-03-13T17:24:11.170Z,48.46
2023-03-13T17:26:40.322Z,48.60
2023-03-13T17:29:11.816Z,48.35
2023-03-13T17:31:41.276Z,48.37
2023-03-13T17:34:09.892Z,48.42
2023-03-13T17:36:37.679Z,48.34
2023-03-13T17:39:08.984Z,48.10
2023-03-13T17:41:37.217Z,48.15
2023-03-13T17:44:05.597Z,47.96
2023-03-13T17:46:43.305Z,47.86
2023-03-13T17:49:13.334Z,48.32
2023-03-13T17:51:41.872Z,48.48
2023-03-13T17:54:09.707Z,48.67
2023-03-13T17:56:40.408Z,48.56
2023-03-13T17:59:13.808Z,48.46
2023-03-13T18:01:42.416Z,48.17
2023-03-13T18:04:11.054Z,48.02
2023-03-13T18:06:40.321Z,48.63
2023-03-13T18:09:15.555Z,48.55
2023-03-13T18:11:43.437Z,48.25
2023-03-13T18:14:11.740Z,48.39
2023-03-13T18:16:47.598Z,47.84
2023-03-13T18:19:26.800Z,48.31
2023-03-13T18:21:56.083Z,48.55
2023-03-13T18:24:23.902Z,50.06
2023-03-13T18:26:51.871Z,49.37
2023-03-13T18:29:26.895Z,49.02
2023-03-13T18:32:00.696Z,49.13
2023-03-13T18:34:29.432Z,49.03
2023-03-13T18:37:03.886Z,48.88
2023-03-13T18:39:33.295Z,48.92
2023-03-13T18:42:02.183Z,49.32
2023-03-13T18:44:30.041Z,49.58
2023-03-13T18:46:57.879Z,49.21
2023-03-13T18:49:26.972Z,49.44
2023-03-13T18:51:54.706Z,49.67
2023-03-13T18:54:22.918Z,49.25
2023-03-13T18:56:51.110Z,49.47
2023-03-13T18:59:21.419Z,49.56
2023-03-13T19:01:50.102Z,49.71
2023-03-13T19:04:19.324Z,49.70
2023-03-13T19:06:48.221Z,49.78
2023-03-13T19:09:42.115Z,49.76
2023-03-13T19:12:11.961Z,49.70
2023-03-13T19:14:40.005Z,49.88
2023-03-13T19:17:17.850Z,49.86
2023-03-13T19:19:47.292Z,50.03
2023-03-13T19:22:15.183Z,49.97
2023-03-13T19:24:43.100Z,50.35
2023-03-13T19:27:14.875Z,50.50
2023-03-13T19:29:44.968Z,50.25
2023-03-13T19:32:18.619Z,50.47
2023-03-13T19:34:48.268Z,50.79
2023-03-13T19:37:17.372Z,50.70
2023-03-13T19:39:46.638Z,50.88
2023-03-13T19:42:15.255Z,50.50
2023-03-13T19:44:43.466Z,50.75
2023-03-13T19:47:19.225Z,51.11
2023-03-13T19:49:51.154Z,51.24
2023-03-13T19:52:19.534Z,51.03
2023-03-13T19:54:47.566Z,50.99
2023-03-13T19:57:17.987Z,50.82
2023-03-13T19:59:45.975Z,50.76
2023-03-13T20:02:14.452Z,51.11
2023-03-13T20:04:45.963Z,51.66
2023-03-13T20:07:17.421Z,51.66
2023-03-13T20:09:45.340Z,51.60
2023-03-13T20:12:13.468Z,51.62
2023-03-13T20:14:43.314Z,51.33
2023-03-13T20:17:11.376Z,51.19
2023-03-13T20:19:39.344Z,51.10
2023-03-13T20:22:17.390Z,50.81
2023-03-13T20:24:45.581Z,50.61
2023-03-13T20:27:13.745Z,51.22
2023-03-13T20:29:41.752Z,51.04
2023-03-13T20:32:09.891Z,51.21
2023-03-13T20:34:38.003Z,51.31
2023-03-13T20:37:07.871Z,51.11
2023-03-13T20:39:36.874Z,51.45
2023-03-13T20:42:06.932Z,51.45
2023-03-13T20:44:36.020Z,51.14
2023-03-13T20:47:03.925Z,50.98
2023-03-13T20:49:32.046Z,51.23
2023-03-13T20:51:59.874Z,50.81
2023-03-13T20:54:27.998Z,50.95
2023-03-13T20:56:58.319Z,51.09
2023-03-13T20:59:28.801Z,51.23
2023-03-13T21:01:56.808Z,51.08
2023-03-13T21:04:25.921Z,51.16
2023-03-13T21:06:54.435Z,51.09
2023-03-13T21:09:24.744Z,51.27
2023-03-13T21:11:52.988Z,51.36
2023-03-13T21:14:21.078Z,51.29
2023-03-13T21:16:49.175Z,51.08
2023-03-13T21:19:20.192Z,51.10
2023-03-13T21:21:49.898Z,51.15
2023-03-13T21:24:19.204Z,51.10
2023-03-13T21:26:47.286Z,50.91
2023-03-13T21:29:15.199Z,50.58
2023-03-13T21:31:43.499Z,51.29
2023-03-13T21:34:11.452Z,51.11
2023-03-13T21:36:42.384Z,50.54
2023-03-13T21:39:14.406Z,50.34
2023-03-13T21:41:42.539Z,48.79
2023-03-13T21:44:11.229Z,47.03
2023-03-13T21:46:39.170Z,44.69
2023-03-13T21:49:07.163Z,44.98
2023-03-13T21:51:35.129Z,44.97
2023-03-13T21:54:03.022Z,44.41
2023-03-13T21:56:32.508Z,44.29
2023-03-13T21:59:00.484Z,43.70
2023-03-13T22:01:28.394Z,43.25
2023-03-13T22:03:56.528Z,42.24
2023-03-13T22:06:27.252Z,41.69
2023-03-13T22:08:55.565Z,41.42
2023-03-13T22:11:23.431Z,40.77
2023-03-13T22:13:52.700Z,39.48
2023-03-13T22:16:21.638Z,40.48
2023-03-13T22:18:49.607Z,39.76
2023-03-13T22:21:19.043Z,40.13
2023-03-13T22:23:47.424Z,39.76
2023-03-13T22:26:15.294Z,39.18
2023-03-13T22:28:43.157Z,38.83
2023-03-13T22:31:12.086Z,39.08
2023-03-13T22:33:40.018Z,39.01
2023-03-13T22:36:08.993Z,39.29
2023-03-13T22:38:39.195Z,38.30
2023-03-13T22:41:09.809Z,37.68
2023-03-13T22:43:37.612Z,37.94
2023-03-13T22:46:08.600Z,38.04
2023-03-13T22:48:39.354Z,37.67
2023-03-13T22:51:09.127Z,36.85
2023-03-13T22:53:38.969Z,37.11
2023-03-13T22:56:10.169Z,37.46
2023-03-13T22:58:39.593Z,37.24
2023-03-13T23:01:13.096Z,37.37
2023-03-13T23:03:41.335Z,36.54
2023-03-13T23:06:14.942Z,36.58
2023-03-13T23:08:43.959Z,36.22
2023-03-13T23:11:12.462Z,35.67
2023-03-13T23:13:42.982Z,36.11
2023-03-13T23:16:12.843Z,35.25
2023-03-13T23:18:42.511Z,35.89
2023-03-13T23:21:14.027Z,34.29
2023-03-13T23:23:42.823Z,34.74
2023-03-13T23:26:14.611Z,34.68
2023-03-13T23:28:42.957Z,33.31
2023-03-13T23:31:14.040Z,31.95
2023-03-13T23:33:42.287Z,31.75
2023-03-13T23:36:16.720Z,30.28
2023-03-13T23:38:44.963Z,31.32
2023-03-13T23:41:14.232Z,31.41
2023-03-13T23:43:42.123Z,30.64
2023-03-13T23:46:26.057Z,29.40
2023-03-13T23:48:58.712Z,30.12
2023-03-13T23:51:26.864Z,30.44
2023-03-13T23:53:54.666Z,30.16
2023-03-13T23:56:22.528Z,30.79
2023-03-13T23:58:53.217Z,30.32
